createdAt,value
2022-09-03T00:01:55.523Z,36.43
2022-09-03T00:06:13.809Z,44.83
2022-09-03T00:10:29.008Z,41.50
2022-09-03T00:14:43.310Z,38.20
2022-09-03T00:18:55.848Z,38.00
2022-09-03T00:23:08.628Z,43.20
2022-09-03T00:27:21.928Z,43.27
2022-09-03T00:31:37.244Z,40.70
2022-09-03T00:35:49.911Z,33.60
2022-09-03T00:39:59.334Z,36.93
2022-09-03T00:44:45.711Z,38.67
2022-09-03T00:49:12.409Z,42.20
2022-09-03T00:53:28.710Z,47.23
2022-09-03T00:57:48.650Z,46.73
2022-09-03T01:02:06.358Z,46.13
2022-09-03T01:06:21.751Z,36.20
2022-09-03T01:10:39.929Z,35.87
2022-09-03T01:15:00.829Z,34.77
2022-09-03T01:19:27.888Z,36.63
2022-09-03T01:24:07.730Z,37.57
2022-09-03T01:28:35.147Z,39.53
2022-09-03T01:32:53.309Z,38.97
2022-09-03T01:37:13.745Z,34.07
2022-09-03T01:41:53.930Z,35.87
2022-09-03T01:46:09.423Z,31.93
2022-09-03T01:50:27.890Z,43.33
2022-09-03T01:55:01.069Z,31.97
2022-09-03T01:59:15.907Z,33.93
2022-09-03T02:03:34.529Z,24.97
2022-09-03T02:07:52.208Z,24.97
2022-09-03T02:12:08.231Z,21.73
2022-09-03T02:16:19.194Z,15.43
2022-09-03T02:20:31.349Z,15.07
2022-09-03T02:24:40.490Z,19.07
2022-09-03T02:28:50.507Z,19.27
2022-09-03T02:33:00.491Z,18.57
2022-09-03T02:37:17.088Z,20.20
2022-09-03T02:41:27.969Z,21.23
2022-09-03T02:45:43.747Z,20.87
2022-09-03T02:49:53.128Z,15.27
2022-09-03T02:54:04.052Z,20.83
2022-09-03T02:58:13.270Z,14.93
2022-09-03T03:02:22.554Z,20.13
2022-09-03T03:06:31.769Z,19.80
2022-09-03T03:10:42.609Z,23.23
2022-09-03T03:14:51.731Z,23.23
2022-09-03T03:19:01.929Z,24.90
2022-09-03T03:23:11.692Z,22.90
2022-09-03T03:27:22.876Z,19.53
2022-09-03T03:31:32.213Z,18.10
2022-09-03T03:35:42.953Z,25.37
2022-09-03T03:39:52.172Z,19.90
2022-09-03T03:44:04.650Z,20.37
2022-09-03T03:48:13.591Z,20.70
2022-09-03T03:52:22.752Z,22.03
2022-09-03T03:56:31.691Z,21.93
2022-09-03T04:00:42.289Z,21.27
2022-09-03T04:04:51.351Z,17.60
2022-09-03T04:09:00.570Z,16.90
2022-09-03T04:13:09.572Z,14.27
2022-09-03T04:17:24.607Z,14.20
2022-09-03T04:21:34.310Z,15.10
2022-09-03T04:25:44.052Z,14.23
2022-09-03T04:29:54.509Z,15.00
2022-09-03T04:34:06.170Z,15.53
2022-09-03T04:38:15.565Z,15.43
2022-09-03T04:42:24.671Z,15.13
2022-09-03T04:46:34.405Z,13.23
2022-09-03T04:50:44.870Z,13.37
2022-09-03T04:54:53.852Z,14.57
2022-09-03T04:59:05.050Z,13.07
2022-09-03T05:03:14.951Z,15.97
2022-09-03T05:07:25.652Z,13.30
2022-09-03T05:11:35.108Z,11.63
2022-09-03T05:15:45.710Z,11.80
2022-09-03T05:19:54.829Z,10.23
2022-09-03T05:24:06.549Z,10.47
2022-09-03T05:28:15.510Z,10.63
2022-09-03T05:32:25.671Z,8.97
2022-09-03T05:36:36.410Z,10.97
2022-09-03T05:40:46.929Z,11.13
2022-09-03T05:44:55.970Z,9.77
2022-09-03T05:49:07.013Z,11.17
2022-09-03T05:53:17.791Z,7.67
2022-09-03T05:57:29.948Z,8.07
2022-09-03T06:01:40.840Z,9.07
2022-09-03T06:05:53.670Z,8.37
2022-09-03T06:10:04.750Z,7.47
2022-09-03T06:14:16.790Z,7.73
2022-09-03T06:18:26.093Z,9.17
2022-09-03T06:22:35.091Z,4.93
2022-09-03T06:26:44.471Z,7.37
2022-09-03T06:30:54.950Z,7.30
2022-09-03T06:35:04.090Z,7.47
2022-09-03T06:39:13.132Z,6.47
2022-09-03T06:43:22.250Z,4.67
2022-09-03T06:47:33.011Z,5.60
2022-09-03T06:51:43.630Z,7.17
2022-09-03T06:55:56.169Z,5.90
2022-09-03T07:00:06.252Z,4.67
2022-09-03T07:04:20.131Z,6.30
2022-09-03T07:08:30.172Z,4.27
2022-09-03T07:12:39.468Z,6.87
2022-09-03T07:16:49.796Z,6.40
2022-09-03T07:21:04.810Z,3.63
2022-09-03T07:25:13.829Z,5.07
2022-09-03T07:29:23.329Z,4.23
2022-09-03T07:33:33.964Z,5.57
2022-09-03T07:37:45.550Z,6.00
2022-09-03T07:41:55.169Z,5.80
2022-09-03T07:46:04.669Z,4.70
2022-09-03T07:50:13.810Z,7.33
2022-09-03T07:54:27.689Z,5.00
2022-09-03T07:58:37.988Z,5.50
2022-09-03T08:02:47.151Z,3.80
2022-09-03T08:07:00.343Z,7.73
2022-09-03T08:11:20.024Z,4.97
2022-09-03T08:15:29.667Z,6.37
2022-09-03T08:19:42.505Z,4.00
2022-09-03T08:23:55.163Z,4.33
2022-09-03T08:28:08.965Z,6.30
2022-09-03T08:32:18.145Z,2.90
2022-09-03T08:36:30.366Z,3.37
2022-09-03T08:40:52.004Z,4.50
2022-09-03T08:50:36.120Z,5.47
2022-09-03T08:54:46.744Z,6.90
2022-09-03T08:59:03.204Z,4.83
2022-09-03T09:03:46.185Z,3.57
2022-09-03T09:08:09.603Z,2.93
2022-09-03T09:12:37.592Z,3.43
2022-09-03T09:17:09.749Z,5.13
2022-09-03T09:21:27.627Z,6.03
2022-09-03T09:25:45.985Z,3.70
2022-09-03T09:29:57.263Z,2.40
2022-09-03T09:34:08.904Z,3.30
2022-09-03T09:38:30.966Z,6.13
2022-09-03T09:42:45.370Z,4.03
2022-09-03T09:47:08.831Z,4.23
2022-09-03T09:51:24.889Z,6.37
2022-09-03T09:55:34.229Z,3.90
2022-09-03T09:59:46.588Z,5.00
2022-09-03T10:03:57.948Z,4.23
2022-09-03T10:08:08.930Z,5.07
2022-09-03T10:12:26.571Z,4.63
2022-09-03T10:16:42.130Z,4.90
2022-09-03T10:21:01.629Z,3.03
2022-09-03T10:25:12.229Z,3.20
2022-09-03T10:29:26.468Z,4.03
2022-09-03T10:33:42.691Z,5.80
2022-09-03T10:37:57.290Z,3.47
2022-09-03T10:42:22.350Z,3.67
2022-09-03T10:46:41.987Z,4.97
2022-09-03T10:50:57.553Z,4.50
2022-09-03T10:55:20.048Z,4.33
2022-09-03T10:59:49.011Z,3.60
2022-09-03T11:04:10.635Z,3.40
2022-09-03T11:08:27.076Z,3.20
2022-09-03T11:12:40.553Z,3.53
2022-09-03T11:16:52.909Z,2.37
2022-09-03T11:21:08.875Z,4.07
2022-09-03T11:25:26.524Z,3.87
2022-09-03T11:29:39.789Z,6.20
2022-09-03T11:33:53.589Z,5.67
2022-09-03T11:38:04.850Z,3.30
2022-09-03T11:42:28.289Z,5.57
2022-09-03T11:46:37.541Z,5.90
2022-09-03T11:50:55.550Z,6.73
2022-09-03T11:55:04.749Z,4.20
2022-09-03T11:59:28.510Z,3.97
2022-09-03T12:03:45.150Z,4.37
2022-09-03T12:08:36.148Z,5.90
2022-09-03T12:12:57.151Z,5.17
2022-09-03T12:17:19.452Z,6.13
2022-09-03T12:21:34.110Z,5.37
2022-09-03T12:25:47.768Z,3.03
2022-09-03T12:30:00.557Z,5.50
2022-09-03T12:34:14.529Z,6.90
2022-09-03T12:38:26.851Z,3.67
2022-09-03T12:42:36.571Z,3.77
2022-09-03T12:46:47.498Z,5.13
2022-09-03T12:55:40.672Z,4.40
2022-09-03T12:59:52.140Z,5.13
2022-09-03T13:04:08.352Z,6.73
2022-09-03T13:08:24.513Z,6.40
2022-09-03T13:12:36.510Z,7.20
2022-09-03T13:17:13.034Z,7.20
2022-09-03T13:21:33.892Z,4.47
2022-09-03T13:25:54.739Z,4.87
2022-09-03T13:30:12.628Z,7.53
2022-09-03T13:34:28.212Z,8.23
2022-09-03T13:38:41.867Z,5.17
2022-09-03T13:42:56.750Z,7.77
2022-09-03T13:47:15.730Z,4.87
2022-09-03T13:51:30.792Z,3.60
2022-09-03T13:55:48.491Z,5.47
2022-09-03T14:00:04.251Z,4.13
2022-09-03T14:04:23.591Z,4.43
2022-09-03T14:08:55.445Z,3.50
2022-09-03T14:13:14.111Z,6.57
2022-09-03T14:17:38.873Z,5.83
2022-09-03T14:21:53.459Z,5.33
2022-09-03T14:26:05.093Z,5.70
2022-09-03T14:31:10.854Z,5.63
2022-09-03T14:35:47.673Z,7.00
2022-09-03T14:40:15.832Z,5.17
2022-09-03T14:45:02.313Z,6.10
2022-09-03T14:49:48.954Z,5.00
2022-09-03T14:55:07.154Z,6.73
2022-09-03T15:00:05.336Z,5.30
2022-09-03T15:05:03.253Z,7.03
2022-09-03T15:09:35.531Z,8.33
2022-09-03T15:14:11.931Z,8.87
2022-09-03T15:18:31.952Z,9.97
2022-09-03T15:23:07.757Z,6.33
2022-09-03T15:27:47.153Z,9.27
2022-09-03T15:32:47.154Z,7.33
2022-09-03T15:37:06.671Z,6.73
2022-09-03T15:41:43.336Z,9.33
2022-09-03T15:46:13.019Z,7.20
2022-09-03T15:50:37.311Z,6.07
2022-09-03T15:55:11.873Z,6.93
2022-09-03T15:59:47.814Z,9.63
2022-09-03T16:04:39.634Z,5.60
2022-09-03T16:08:58.239Z,9.83
2022-09-03T16:13:21.860Z,6.10
2022-09-03T16:17:43.793Z,6.90
2022-09-03T16:22:00.593Z,5.50
2022-09-03T16:26:38.414Z,7.87
2022-09-03T16:31:25.118Z,7.93
2022-09-03T16:35:47.993Z,6.73
2022-09-03T16:40:16.432Z,7.30
2022-09-03T16:44:51.637Z,8.77
2022-09-03T16:49:37.859Z,7.33
2022-09-03T16:54:14.693Z,8.37
2022-09-03T16:58:36.754Z,7.43
2022-09-03T17:03:53.375Z,9.07
2022-09-03T17:08:17.852Z,6.37
2022-09-03T17:12:58.553Z,11.77
2022-09-03T17:17:21.073Z,12.10
2022-09-03T17:21:46.752Z,10.50
2022-09-03T17:26:07.267Z,10.67
2022-09-03T17:30:24.747Z,7.63
2022-09-03T17:34:50.028Z,8.43
2022-09-03T17:39:31.582Z,10.70
2022-09-03T17:43:48.631Z,8.27
2022-09-03T17:48:23.670Z,9.37
2022-09-03T17:52:41.231Z,8.30
2022-09-03T17:57:05.311Z,8.53
2022-09-03T18:01:20.780Z,10.70
2022-09-03T18:05:36.029Z,13.30
2022-09-03T18:09:54.412Z,8.43
2022-09-03T18:14:15.753Z,8.57
2022-09-03T18:18:31.471Z,4.80
2022-09-03T18:23:12.030Z,8.67
2022-09-03T18:27:47.630Z,8.00
2022-09-03T18:32:15.990Z,11.63
2022-09-03T18:36:47.989Z,7.67
2022-09-03T18:41:31.431Z,9.33
2022-09-03T18:51:06.570Z,5.50
2022-09-03T18:55:39.850Z,8.57
2022-09-03T19:00:28.076Z,10.23
2022-09-03T19:10:08.710Z,10.90
2022-09-03T19:15:14.352Z,7.60
2022-09-03T19:20:06.190Z,9.27
2022-09-03T19:24:36.491Z,9.57
2022-09-03T19:29:12.823Z,9.00
2022-09-03T19:33:54.567Z,10.23
2022-09-03T19:38:39.184Z,9.87
2022-09-03T19:43:15.845Z,12.07
2022-09-03T19:47:55.566Z,12.10
2022-09-03T19:52:30.463Z,12.70
2022-09-03T19:57:00.404Z,17.03
2022-09-03T20:01:30.317Z,10.77
2022-09-03T20:05:58.605Z,9.80
2022-09-03T20:10:36.110Z,11.37
2022-09-03T20:14:56.850Z,12.50
2022-09-03T20:19:45.328Z,14.20
2022-09-03T20:24:33.466Z,9.20
2022-09-03T20:29:21.550Z,12.93
2022-09-03T20:33:55.805Z,9.57
2022-09-03T20:38:16.447Z,11.97
2022-09-03T20:42:43.245Z,10.03
2022-09-03T20:47:07.444Z,8.30
2022-09-03T20:51:26.143Z,15.87
2022-09-03T21:05:39.963Z,11.13
2022-09-03T21:10:06.722Z,17.73
2022-09-03T21:14:28.783Z,13.73
2022-09-03T21:50:04.103Z,10.30
2022-09-03T21:54:41.364Z,15.13
2022-09-03T21:59:09.390Z,14.90
2022-09-03T22:03:47.764Z,15.97
2022-09-03T22:08:48.323Z,13.07
2022-09-03T22:13:39.744Z,14.37
2022-09-03T22:18:20.343Z,14.47
2022-09-03T22:22:41.121Z,11.87
2022-09-03T22:32:41.002Z,13.97
2022-09-03T22:36:59.022Z,12.33
2022-09-03T22:41:46.962Z,15.87
2022-09-03T22:46:14.418Z,15.60
2022-09-03T22:50:30.524Z,13.07
2022-09-03T22:54:55.102Z,12.37
2022-09-03T22:59:32.642Z,10.20
2022-09-03T23:03:50.657Z,15.37
2022-09-03T23:08:31.124Z,17.33
2022-09-03T23:12:46.123Z,15.07
2022-09-03T23:17:22.743Z,14.10
2022-09-03T23:22:02.862Z,13.53
2022-09-03T23:26:23.623Z,15.07
2022-09-03T23:30:32.862Z,15.47
2022-09-03T23:34:42.241Z,16.13
2022-09-03T23:39:01.064Z,14.93
2022-09-03T23:43:44.683Z,14.80
2022-09-03T23:48:01.281Z,9.57
2022-09-03T23:52:24.886Z,13.53
2022-09-03T23:56:51.465Z,11.90
